sensor_id;sensor_type;location;lat;lon;timestamp;pressure;altitude;pressure_sealevel;temperature;humidity
55460;BME280;41326;45.302;-122.946;2023-07-13T00:00:53;100952.37;;;22.43;46.41
55460;BME280;41326;45.302;-122.946;2023-07-13T00:03:24;100949.18;;;22.31;46.99
55460;BME280;41326;45.302;-122.946;2023-07-13T00:06:00;100948.58;;;22.21;47.50
55460;BME280;41326;45.302;-122.946;2023-07-13T00:08:24;100949.17;;;22.14;45.90
55460;BME280;41326;45.302;-122.946;2023-07-13T00:10:57;100950.12;;;22.10;45.31
55460;BME280;41326;45.302;-122.946;2023-07-13T00:13:25;100945.56;;;22.08;45.99
55460;BME280;41326;45.302;-122.946;2023-07-13T00:15:56;100945.73;;;21.99;47.00
55460;BME280;41326;45.302;-122.946;2023-07-13T00:18:25;100947.15;;;21.92;45.09
55460;BME280;41326;45.302;-122.946;2023-07-13T00:20:55;100951.38;;;21.86;45.55
55460;BME280;41326;45.302;-122.946;2023-07-13T00:23:26;100950.96;;;21.79;45.58
55460;BME280;41326;45.302;-122.946;2023-07-13T00:25:57;100948.71;;;21.77;45.79
55460;BME280;41326;45.302;-122.946;2023-07-13T00:28:27;100948.90;;;21.79;44.88
55460;BME280;41326;45.302;-122.946;2023-07-13T00:30:57;100945.74;;;21.74;45.39
55460;BME280;41326;45.302;-122.946;2023-07-13T00:33:27;100946.55;;;21.72;43.86
55460;BME280;41326;45.302;-122.946;2023-07-13T00:35:59;100943.36;;;21.67;43.23
55460;BME280;41326;45.302;-122.946;2023-07-13T00:38:28;100944.26;;;21.70;45.91
55460;BME280;41326;45.302;-122.946;2023-07-13T00:40:58;100944.45;;;21.94;46.41
55460;BME280;41326;45.302;-122.946;2023-07-13T00:43:30;100943.23;;;22.14;46.90
55460;BME280;41326;45.302;-122.946;2023-07-13T00:48:34;100944.01;;;22.47;47.70
55460;BME280;41326;45.302;-122.946;2023-07-13T00:51:01;100940.34;;;22.51;45.54
55460;BME280;41326;45.302;-122.946;2023-07-13T00:53:30;100936.48;;;22.30;45.12
55460;BME280;41326;45.302;-122.946;2023-07-13T00:56:01;100938.75;;;22.22;44.63
55460;BME280;41326;45.302;-122.946;2023-07-13T00:58:31;100939.13;;;22.21;46.10
55460;BME280;41326;45.302;-122.946;2023-07-13T01:01:01;100937.87;;;22.36;46.54
55460;BME280;41326;45.302;-122.946;2023-07-13T01:03:31;100936.30;;;22.46;47.12
55460;BME280;41326;45.302;-122.946;2023-07-13T01:06:02;100934.74;;;22.60;47.84
55460;BME280;41326;45.302;-122.946;2023-07-13T01:08:32;100932.70;;;22.68;48.02
55460;BME280;41326;45.302;-122.946;2023-07-13T01:11:03;100930.93;;;22.71;48.12
55460;BME280;41326;45.302;-122.946;2023-07-13T01:13:33;100932.79;;;22.69;47.31
55460;BME280;41326;45.302;-122.946;2023-07-13T01:16:11;100932.23;;;22.49;45.62
55460;BME280;41326;45.302;-122.946;2023-07-13T01:18:34;100931.94;;;22.30;46.31
55460;BME280;41326;45.302;-122.946;2023-07-13T01:21:05;100932.44;;;22.30;47.10
55460;BME280;41326;45.302;-122.946;2023-07-13T01:23:35;100934.32;;;22.22;44.86
55460;BME280;41326;45.302;-122.946;2023-07-13T01:26:07;100937.02;;;22.18;46.15
55460;BME280;41326;45.302;-122.946;2023-07-13T01:28:35;100937.61;;;22.08;45.43
55460;BME280;41326;45.302;-122.946;2023-07-13T01:31:05;100937.50;;;22.05;45.93
55460;BME280;41326;45.302;-122.946;2023-07-13T01:33:36;100937.76;;;22.10;46.38
55460;BME280;41326;45.302;-122.946;2023-07-13T01:36:06;100937.63;;;22.11;46.56
55460;BME280;41326;45.302;-122.946;2023-07-13T01:38:36;100938.79;;;22.03;46.92
55460;BME280;41326;45.302;-122.946;2023-07-13T01:41:07;100938.25;;;22.05;50.10
55460;BME280;41326;45.302;-122.946;2023-07-13T01:43:37;100937.03;;;22.23;50.87
55460;BME280;41326;45.302;-122.946;2023-07-13T01:46:07;100937.03;;;22.43;51.29
55460;BME280;41326;45.302;-122.946;2023-07-13T01:48:37;100935.52;;;22.55;50.60
55460;BME280;41326;45.302;-122.946;2023-07-13T01:51:08;100935.78;;;22.56;48.44
55460;BME280;41326;45.302;-122.946;2023-07-13T01:53:38;100935.67;;;22.48;48.33
55460;BME280;41326;45.302;-122.946;2023-07-13T01:56:09;100931.45;;;22.43;47.36
55460;BME280;41326;45.302;-122.946;2023-07-13T01:58:39;100933.25;;;22.39;47.29
55460;BME280;41326;45.302;-122.946;2023-07-13T02:01:09;100932.80;;;22.35;47.67
55460;BME280;41326;45.302;-122.946;2023-07-13T02:03:39;100933.28;;;22.31;48.73
55460;BME280;41326;45.302;-122.946;2023-07-13T02:06:09;100933.43;;;22.42;49.60
55460;BME280;41326;45.302;-122.946;2023-07-13T02:08:40;100934.16;;;22.48;50.12
55460;BME280;41326;45.302;-122.946;2023-07-13T02:11:11;100933.02;;;22.53;50.35
55460;BME280;41326;45.302;-122.946;2023-07-13T02:13:41;100937.26;;;22.55;49.31
55460;BME280;41326;45.302;-122.946;2023-07-13T02:16:11;100940.07;;;22.52;49.65
55460;BME280;41326;45.302;-122.946;2023-07-13T02:18:41;100946.55;;;22.51;48.90
55460;BME280;41326;45.302;-122.946;2023-07-13T02:21:11;100947.08;;;22.40;49.06
55460;BME280;41326;45.302;-122.946;2023-07-13T02:23:41;100952.09;;;22.48;49.74
55460;BME280;41326;45.302;-122.946;2023-07-13T02:26:12;100950.06;;;22.55;50.41
55460;BME280;41326;45.302;-122.946;2023-07-13T02:28:44;100950.96;;;22.57;50.80
55460;BME280;41326;45.302;-122.946;2023-07-13T02:31:15;100951.94;;;22.63;50.93
55460;BME280;41326;45.302;-122.946;2023-07-13T02:33:44;100955.36;;;22.68;51.08
55460;BME280;41326;45.302;-122.946;2023-07-13T02:36:14;100959.66;;;22.70;51.25
55460;BME280;41326;45.302;-122.946;2023-07-13T02:38:44;100957.34;;;22.76;51.23
55460;BME280;41326;45.302;-122.946;2023-07-13T02:41:14;100958.83;;;22.82;49.03
55460;BME280;41326;45.302;-122.946;2023-07-13T02:43:45;100957.69;;;22.60;45.38
55460;BME280;41326;45.302;-122.946;2023-07-13T02:46:15;100956.42;;;22.44;46.81
55460;BME280;41326;45.302;-122.946;2023-07-13T02:48:45;100961.03;;;22.37;47.78
55460;BME280;41326;45.302;-122.946;2023-07-13T02:51:15;100958.79;;;22.18;47.11
55460;BME280;41326;45.302;-122.946;2023-07-13T02:53:46;100957.31;;;22.19;49.17
55460;BME280;41326;45.302;-122.946;2023-07-13T02:56:17;100959.83;;;22.27;49.49
55460;BME280;41326;45.302;-122.946;2023-07-13T02:58:46;100960.48;;;22.41;49.44
55460;BME280;41326;45.302;-122.946;2023-07-13T03:01:18;100960.07;;;22.53;49.39
55460;BME280;41326;45.302;-122.946;2023-07-13T03:03:47;100963.31;;;22.60;49.72
55460;BME280;41326;45.302;-122.946;2023-07-13T03:06:18;100967.66;;;22.70;50.26
55460;BME280;41326;45.302;-122.946;2023-07-13T03:08:48;100968.38;;;22.57;46.77
55460;BME280;41326;45.302;-122.946;2023-07-13T03:11:20;100972.14;;;22.33;46.73
55460;BME280;41326;45.302;-122.946;2023-07-13T03:13:50;100975.76;;;22.18;46.67
55460;BME280;41326;45.302;-122.946;2023-07-13T03:16:20;100978.30;;;22.09;46.69
55460;BME280;41326;45.302;-122.946;2023-07-13T03:18:49;100978.49;;;21.95;44.97
55460;BME280;41326;45.302;-122.946;2023-07-13T03:21:20;100980.80;;;21.90;46.26
55460;BME280;41326;45.302;-122.946;2023-07-13T03:23:50;100983.29;;;21.83;45.52
55460;BME280;41326;45.302;-122.946;2023-07-13T03:26:22;100984.70;;;21.57;45.53
55460;BME280;41326;45.302;-122.946;2023-07-13T03:28:51;100986.64;;;21.49;45.30
55460;BME280;41326;45.302;-122.946;2023-07-13T03:31:24;100986.14;;;21.37;44.29
55460;BME280;41326;45.302;-122.946;2023-07-13T03:33:51;100988.89;;;21.14;44.94
55460;BME280;41326;45.302;-122.946;2023-07-13T03:36:24;100992.31;;;21.19;45.66
55460;BME280;41326;45.302;-122.946;2023-07-13T03:38:52;100995.82;;;21.13;44.46
55460;BME280;41326;45.302;-122.946;2023-07-13T03:41:23;100996.56;;;21.11;44.98
55460;BME280;41326;45.302;-122.946;2023-07-13T03:43:52;100999.40;;;21.01;45.08
55460;BME280;41326;45.302;-122.946;2023-07-13T03:46:23;101002.01;;;20.96;45.13
55460;BME280;41326;45.302;-122.946;2023-07-13T03:48:53;101003.21;;;21.00;44.60
55460;BME280;41326;45.302;-122.946;2023-07-13T03:51:23;101008.96;;;21.00;44.63
55460;BME280;41326;45.302;-122.946;2023-07-13T03:53:53;101014.93;;;20.90;44.79
55460;BME280;41326;45.302;-122.946;2023-07-13T03:56:24;101016.23;;;20.81;45.01
55460;BME280;41326;45.302;-122.946;2023-07-13T03:58:54;101018.28;;;20.90;44.14
55460;BME280;41326;45.302;-122.946;2023-07-13T04:01:24;101022.93;;;20.89;44.38
55460;BME280;41326;45.302;-122.946;2023-07-13T04:03:54;101023.09;;;20.79;44.34
55460;BME280;41326;45.302;-122.946;2023-07-13T04:06:27;101031.01;;;20.65;44.29
55460;BME280;41326;45.302;-122.946;2023-07-13T04:08:55;101033.31;;;20.67;45.08
55460;BME280;41326;45.302;-122.946;2023-07-13T04:11:25;101034.16;;;20.63;44.43
55460;BME280;41326;45.302;-122.946;2023-07-13T04:13:55;101035.23;;;20.58;44.42
55460;BME280;41326;45.302;-122.946;2023-07-13T04:16:25;101039.81;;;20.61;43.26
55460;BME280;41326;45.302;-122.946;2023-07-13T04:18:55;101041.17;;;20.60;44.03
55460;BME280;41326;45.302;-122.946;2023-07-13T04:21:25;101041.84;;;20.46;43.69
55460;BME280;41326;45.302;-122.946;2023-07-13T04:23:55;101046.84;;;20.38;43.97
55460;BME280;41326;45.302;-122.946;2023-07-13T04:26:26;101049.48;;;20.43;44.72
55460;BME280;41326;45.302;-122.946;2023-07-13T04:28:57;101054.31;;;20.41;44.62
55460;BME280;41326;45.302;-122.946;2023-07-13T04:31:26;101056.54;;;20.37;43.95
55460;BME280;41326;45.302;-122.946;2023-07-13T04:33:57;101058.63;;;20.25;44.57
55460;BME280;41326;45.302;-122.946;2023-07-13T04:36:27;101066.83;;;20.25;43.42
55460;BME280;41326;45.302;-122.946;2023-07-13T04:38:58;101070.12;;;20.31;43.78
55460;BME280;41326;45.302;-122.946;2023-07-13T04:42:36;101079.56;;;20.27;43.46
55460;BME280;41326;45.302;-122.946;2023-07-13T04:45:07;101082.96;;;20.11;44.22
55460;BME280;41326;45.302;-122.946;2023-07-13T04:47:37;101089.73;;;20.12;43.94
55460;BME280;41326;45.302;-122.946;2023-07-13T04:50:08;101097.95;;;20.06;43.98
55460;BME280;41326;45.302;-122.946;2023-07-13T04:52:47;101104.25;;;20.14;45.41
55460;BME280;41326;45.302;-122.946;2023-07-13T04:55:17;101111.69;;;20.31;45.74
55460;BME280;41326;45.302;-122.946;2023-07-13T04:57:48;101113.47;;;20.48;44.93
55460;BME280;41326;45.302;-122.946;2023-07-13T05:00:20;101113.51;;;20.64;44.35
55460;BME280;41326;45.302;-122.946;2023-07-13T05:02:50;101117.84;;;20.51;43.09
55460;BME280;41326;45.302;-122.946;2023-07-13T05:05:19;101120.28;;;20.39;43.35
55460;BME280;41326;45.302;-122.946;2023-07-13T05:07:49;101126.92;;;20.29;43.18
55460;BME280;41326;45.302;-122.946;2023-07-13T05:10:19;101130.56;;;20.25;44.02
55460;BME280;41326;45.302;-122.946;2023-07-13T05:12:50;101133.60;;;20.27;45.39
55460;BME280;41326;45.302;-122.946;2023-07-13T05:15:21;101140.82;;;20.41;45.90
55460;BME280;41326;45.302;-122.946;2023-07-13T05:17:50;101148.49;;;20.56;46.07
55460;BME280;41326;45.302;-122.946;2023-07-13T05:20:21;101150.12;;;20.71;46.14
55460;BME280;41326;45.302;-122.946;2023-07-13T05:22:51;101154.46;;;20.68;45.12
55460;BME280;41326;45.302;-122.946;2023-07-13T05:25:22;101159.14;;;20.54;44.34
55460;BME280;41326;45.302;-122.946;2023-07-13T05:27:53;101162.24;;;20.45;44.97
55460;BME280;41326;45.302;-122.946;2023-07-13T05:30:22;101166.53;;;20.58;45.97
55460;BME280;41326;45.302;-122.946;2023-07-13T05:32:53;101169.57;;;20.75;47.26
55460;BME280;41326;45.302;-122.946;2023-07-13T05:35:23;101169.13;;;20.83;49.02
55460;BME280;41326;45.302;-122.946;2023-07-13T05:37:53;101164.87;;;20.91;48.09
55460;BME280;41326;45.302;-122.946;2023-07-13T05:40:24;101175.79;;;20.84;46.08
55460;BME280;41326;45.302;-122.946;2023-07-13T05:42:54;101175.29;;;20.66;47.15
55460;BME280;41326;45.302;-122.946;2023-07-13T05:45:25;101178.90;;;20.58;47.13
55460;BME280;41326;45.302;-122.946;2023-07-13T05:47:55;101181.09;;;20.54;47.04
55460;BME280;41326;45.302;-122.946;2023-07-13T05:50:26;101181.07;;;20.44;49.55
55460;BME280;41326;45.302;-122.946;2023-07-13T05:52:55;101188.24;;;20.55;51.00
55460;BME280;41326;45.302;-122.946;2023-07-13T05:55:25;101190.76;;;20.66;51.16
55460;BME280;41326;45.302;-122.946;2023-07-13T05:57:55;101194.77;;;20.80;51.83
55460;BME280;41326;45.302;-122.946;2023-07-13T06:00:26;101195.31;;;20.90;51.47
55460;BME280;41326;45.302;-122.946;2023-07-13T06:02:56;101188.17;;;20.99;51.21
55460;BME280;41326;45.302;-122.946;2023-07-13T06:05:26;101189.74;;;21.07;51.51
55460;BME280;41326;45.302;-122.946;2023-07-13T06:07:56;101193.11;;;21.10;51.99
55460;BME280;41326;45.302;-122.946;2023-07-13T06:10:27;101198.05;;;21.16;52.35
55460;BME280;41326;45.302;-122.946;2023-07-13T06:12:57;101199.63;;;21.24;52.66
55460;BME280;41326;45.302;-122.946;2023-07-13T06:15:28;101205.38;;;21.27;53.12
55460;BME280;41326;45.302;-122.946;2023-07-13T06:17:58;101204.39;;;21.27;53.12
55460;BME280;41326;45.302;-122.946;2023-07-13T06:20:28;101206.13;;;21.29;53.14
55460;BME280;41326;45.302;-122.946;2023-07-13T06:22:59;101208.01;;;21.32;53.12
55460;BME280;41326;45.302;-122.946;2023-07-13T06:25:29;101208.95;;;21.27;51.19
55460;BME280;41326;45.302;-122.946;2023-07-13T06:28:00;101213.30;;;21.13;50.13
55460;BME280;41326;45.302;-122.946;2023-07-13T06:30:30;101212.36;;;21.06;48.04
55460;BME280;41326;45.302;-122.946;2023-07-13T06:33:00;101213.46;;;20.91;50.39
55460;BME280;41326;45.302;-122.946;2023-07-13T06:35:30;101213.64;;;20.89;51.27
55460;BME280;41326;45.302;-122.946;2023-07-13T06:38:01;101211.53;;;20.94;51.95
55460;BME280;41326;45.302;-122.946;2023-07-13T06:40:31;101212.28;;;21.03;52.28
55460;BME280;41326;45.302;-122.946;2023-07-13T06:43:02;101209.51;;;21.09;52.39
55460;BME280;41326;45.302;-122.946;2023-07-13T06:45:34;101211.47;;;21.12;52.90
55460;BME280;41326;45.302;-122.946;2023-07-13T06:48:03;101210.91;;;21.17;53.08
55460;BME280;41326;45.302;-122.946;2023-07-13T06:50:33;101212.51;;;21.19;53.08
55460;BME280;41326;45.302;-122.946;2023-07-13T06:53:03;101220.02;;;21.13;53.62
55460;BME280;41326;45.302;-122.946;2023-07-13T06:55:33;101223.53;;;21.15;53.54
55460;BME280;41326;45.302;-122.946;2023-07-13T06:58:04;101226.36;;;21.21;53.41
55460;BME280;41326;45.302;-122.946;2023-07-13T07:00:34;101224.87;;;21.28;53.29
55460;BME280;41326;45.302;-122.946;2023-07-13T07:03:05;101225.78;;;21.29;53.46
55460;BME280;41326;45.302;-122.946;2023-07-13T07:05:35;101221.04;;;21.29;53.79
55460;BME280;41326;45.302;-122.946;2023-07-13T07:08:06;101218.71;;;21.34;53.86
55460;BME280;41326;45.302;-122.946;2023-07-13T07:10:36;101215.68;;;21.33;53.88
55460;BME280;41326;45.302;-122.946;2023-07-13T07:13:06;101213.93;;;21.33;53.55
55460;BME280;41326;45.302;-122.946;2023-07-13T07:15:36;101215.88;;;21.30;53.53
55460;BME280;41326;45.302;-122.946;2023-07-13T07:18:07;101216.97;;;21.29;53.63
55460;BME280;41326;45.302;-122.946;2023-07-13T07:20:37;101221.25;;;21.32;53.54
55460;BME280;41326;45.302;-122.946;2023-07-13T07:23:11;101218.17;;;21.32;53.70
55460;BME280;41326;45.302;-122.946;2023-07-13T07:25:37;101214.87;;;21.35;54.11
55460;BME280;41326;45.302;-122.946;2023-07-13T07:28:09;101215.00;;;21.35;54.44
55460;BME280;41326;45.302;-122.946;2023-07-13T07:30:41;101212.81;;;21.33;54.48
55460;BME280;41326;45.302;-122.946;2023-07-13T07:33:09;101215.13;;;21.32;54.63
55460;BME280;41326;45.302;-122.946;2023-07-13T07:35:39;101217.01;;;21.29;54.83
55460;BME280;41326;45.302;-122.946;2023-07-13T07:38:10;101214.21;;;21.29;54.49
55460;BME280;41326;45.302;-122.946;2023-07-13T07:40:42;101214.26;;;21.30;54.21
55460;BME280;41326;45.302;-122.946;2023-07-13T07:43:11;101217.44;;;21.30;54.45
55460;BME280;41326;45.302;-122.946;2023-07-13T07:45:41;101213.77;;;21.31;54.79
55460;BME280;41326;45.302;-122.946;2023-07-13T07:48:12;101218.55;;;21.32;54.83
55460;BME280;41326;45.302;-122.946;2023-07-13T07:50:41;101219.97;;;21.33;54.83
55460;BME280;41326;45.302;-122.946;2023-07-13T07:53:12;101221.52;;;21.34;54.79
55460;BME280;41326;45.302;-122.946;2023-07-13T07:55:44;101218.21;;;21.37;54.70
55460;BME280;41326;45.302;-122.946;2023-07-13T07:58:12;101208.37;;;21.36;54.75
55460;BME280;41326;45.302;-122.946;2023-07-13T08:00:42;101213.70;;;21.37;54.74
55460;BME280;41326;45.302;-122.946;2023-07-13T08:03:12;101214.65;;;21.33;54.92
55460;BME280;41326;45.302;-122.946;2023-07-13T08:05:43;101218.07;;;21.32;55.14
55460;BME280;41326;45.302;-122.946;2023-07-13T08:08:13;101217.82;;;21.24;55.53
55460;BME280;41326;45.302;-122.946;2023-07-13T08:10:43;101216.95;;;21.29;54.96
55460;BME280;41326;45.302;-122.946;2023-07-13T08:13:14;101210.83;;;21.31;54.16
55460;BME280;41326;45.302;-122.946;2023-07-13T08:15:44;101211.59;;;21.24;54.29
55460;BME280;41326;45.302;-122.946;2023-07-13T08:18:15;101211.64;;;21.26;54.37
55460;BME280;41326;45.302;-122.946;2023-07-13T08:20:45;101217.51;;;21.31;54.31
55460;BME280;41326;45.302;-122.946;2023-07-13T08:23:17;101219.51;;;21.34;54.27
55460;BME280;41326;45.302;-122.946;2023-07-13T08:25:51;101222.68;;;21.25;54.61
55460;BME280;41326;45.302;-122.946;2023-07-13T08:28:16;101230.29;;;21.21;54.97
55460;BME280;41326;45.302;-122.946;2023-07-13T08:30:47;101235.58;;;21.23;54.85
55460;BME280;41326;45.302;-122.946;2023-07-13T08:33:18;101239.01;;;21.21;54.87
55460;BME280;41326;45.302;-122.946;2023-07-13T08:35:48;101244.50;;;21.17;54.93
55460;BME280;41326;45.302;-122.946;2023-07-13T08:38:18;101247.32;;;21.17;54.76
55460;BME280;41326;45.302;-122.946;2023-07-13T08:40:50;101250.53;;;21.21;54.68
55460;BME280;41326;45.302;-122.946;2023-07-13T08:43:23;101249.14;;;21.18;54.91
55460;BME280;41326;45.302;-122.946;2023-07-13T08:45:52;101253.59;;;21.17;55.08
55460;BME280;41326;45.302;-122.946;2023-07-13T08:48:25;101253.27;;;21.12;55.18
55460;BME280;41326;45.302;-122.946;2023-07-13T08:50:55;101254.29;;;21.17;55.13
55460;BME280;41326;45.302;-122.946;2023-07-13T08:53:21;101258.97;;;21.16;55.14
55460;BME280;41326;45.302;-122.946;2023-07-13T08:55:50;101258.99;;;21.18;55.07
55460;BME280;41326;45.302;-122.946;2023-07-13T08:58:22;101257.92;;;21.21;54.97
55460;BME280;41326;45.302;-122.946;2023-07-13T09:00:58;101258.72;;;21.15;55.10
55460;BME280;41326;45.302;-122.946;2023-07-13T09:03:29;101260.41;;;21.08;55.36
55460;BME280;41326;45.302;-122.946;2023-07-13T09:05:56;101264.43;;;21.14;55.30
55460;BME280;41326;45.302;-122.946;2023-07-13T09:08:33;101265.24;;;21.16;55.29
55460;BME280;41326;45.302;-122.946;2023-07-13T09:10:58;101265.46;;;21.16;55.22
55460;BME280;41326;45.302;-122.946;2023-07-13T09:13:28;101268.31;;;21.20;55.04
55460;BME280;41326;45.302;-122.946;2023-07-13T09:15:54;101269.65;;;21.21;54.98
55460;BME280;41326;45.302;-122.946;2023-07-13T09:18:28;101273.22;;;21.22;54.84
55460;BME280;41326;45.302;-122.946;2023-07-13T09:21:00;101277.17;;;21.15;54.96
55460;BME280;41326;45.302;-122.946;2023-07-13T09:23:27;101278.71;;;21.19;54.94
55460;BME280;41326;45.302;-122.946;2023-07-13T09:25:58;101281.97;;;21.20;54.97
55460;BME280;41326;45.302;-122.946;2023-07-13T09:28:28;101285.79;;;21.18;55.05
55460;BME280;41326;45.302;-122.946;2023-07-13T09:30:58;101285.25;;;21.18;54.94
55460;BME280;41326;45.302;-122.946;2023-07-13T09:33:25;101281.87;;;21.16;55.05
55460;BME280;41326;45.302;-122.946;2023-07-13T09:35:56;101283.69;;;21.15;55.01
55460;BME280;41326;45.302;-122.946;2023-07-13T09:38:28;101279.93;;;21.03;55.44
55460;BME280;41326;45.302;-122.946;2023-07-13T09:41:08;101277.51;;;21.11;55.21
55460;BME280;41326;45.302;-122.946;2023-07-13T09:43:27;101275.61;;;21.06;55.30
55460;BME280;41326;45.302;-122.946;2023-07-13T09:45:57;101274.62;;;21.00;55.37
55460;BME280;41326;45.302;-122.946;2023-07-13T09:48:32;101274.83;;;20.89;55.73
55460;BME280;41326;45.302;-122.946;2023-07-13T09:51:03;101277.69;;;20.91;55.78
55460;BME280;41326;45.302;-122.946;2023-07-13T09:53:27;101278.24;;;20.87;55.84
55460;BME280;41326;45.302;-122.946;2023-07-13T09:55:58;101278.38;;;20.93;55.72
55460;BME280;41326;45.302;-122.946;2023-07-13T09:58:30;101282.51;;;20.94;55.56
55460;BME280;41326;45.302;-122.946;2023-07-13T10:01:02;101284.00;;;20.90;55.68
55460;BME280;41326;45.302;-122.946;2023-07-13T10:03:32;101282.87;;;20.91;55.69
55460;BME280;41326;45.302;-122.946;2023-07-13T10:06:03;101281.26;;;20.98;55.58
55460;BME280;41326;45.302;-122.946;2023-07-13T10:08:31;101279.54;;;20.99;55.49
55460;BME280;41326;45.302;-122.946;2023-07-13T10:11:09;101279.62;;;21.00;55.49
55460;BME280;41326;45.302;-122.946;2023-07-13T10:13:34;101284.12;;;21.05;55.35
55460;BME280;41326;45.302;-122.946;2023-07-13T10:16:02;101281.58;;;21.03;55.36
55460;BME280;41326;45.302;-122.946;2023-07-13T10:18:38;101283.35;;;21.04;55.36
55460;BME280;41326;45.302;-122.946;2023-07-13T10:21:11;101283.08;;;21.02;55.26
55460;BME280;41326;45.302;-122.946;2023-07-13T10:23:36;101278.10;;;20.90;55.65
55460;BME280;41326;45.302;-122.946;2023-07-13T10:26:02;101279.21;;;20.90;55.65
55460;BME280;41326;45.302;-122.946;2023-07-13T10:28:36;101278.31;;;20.87;55.70
55460;BME280;41326;45.302;-122.946;2023-07-13T10:31:06;101273.01;;;20.88;55.71
55460;BME280;41326;45.302;-122.946;2023-07-13T10:33:33;101269.80;;;20.89;55.54
55460;BME280;41326;45.302;-122.946;2023-07-13T10:36:12;101271.99;;;20.84;55.66
55460;BME280;41326;45.302;-122.946;2023-07-13T10:38:34;101271.70;;;20.91;55.44
55460;BME280;41326;45.302;-122.946;2023-07-13T10:41:10;101272.56;;;20.84;55.51
55460;BME280;41326;45.302;-122.946;2023-07-13T10:43:40;101276.39;;;20.77;55.71
55460;BME280;41326;45.302;-122.946;2023-07-13T10:46:06;101276.19;;;20.74;55.77
55460;BME280;41326;45.302;-122.946;2023-07-13T10:48:35;101275.25;;;20.71;55.87
55460;BME280;41326;45.302;-122.946;2023-07-13T10:51:06;101275.46;;;20.68;55.93
55460;BME280;41326;45.302;-122.946;2023-07-13T10:53:37;101276.33;;;20.65;55.98
55460;BME280;41326;45.302;-122.946;2023-07-13T10:56:19;101277.85;;;20.61;56.07
55460;BME280;41326;45.302;-122.946;2023-07-13T10:58:39;101277.54;;;20.56;56.15
55460;BME280;41326;45.302;-122.946;2023-07-13T11:01:12;101280.16;;;20.53;56.23
55460;BME280;41326;45.302;-122.946;2023-07-13T11:03:46;101280.58;;;20.64;56.01
55460;BME280;41326;45.302;-122.946;2023-07-13T11:06:15;101278.01;;;20.71;55.81
55460;BME280;41326;45.302;-122.946;2023-07-13T11:16:13;101277.84;;;20.63;56.05
55460;BME280;41326;45.302;-122.946;2023-07-13T11:18:39;101279.78;;;20.67;55.90
55460;BME280;41326;45.302;-122.946;2023-07-13T11:21:14;101279.72;;;20.60;56.07
55460;BME280;41326;45.302;-122.946;2023-07-13T11:23:47;101278.83;;;20.56;56.20
55460;BME280;41326;45.302;-122.946;2023-07-13T11:28:42;101274.77;;;20.49;56.47
55460;BME280;41326;45.302;-122.946;2023-07-13T11:31:15;101271.59;;;20.43;56.69
55460;BME280;41326;45.302;-122.946;2023-07-13T11:36:13;101271.59;;;20.36;56.78
55460;BME280;41326;45.302;-122.946;2023-07-13T11:38:43;101271.69;;;20.31;56.86
55460;BME280;41326;45.302;-122.946;2023-07-13T11:41:15;101275.69;;;20.33;56.76
55460;BME280;41326;45.302;-122.946;2023-07-13T11:43:42;101275.78;;;20.34;56.78
55460;BME280;41326;45.302;-122.946;2023-07-13T11:46:20;101276.03;;;20.31;56.82
55460;BME280;41326;45.302;-122.946;2023-07-13T11:48:43;101274.18;;;20.29;56.92
55460;BME280;41326;45.302;-122.946;2023-07-13T11:51:19;101279.48;;;20.34;56.71
55460;BME280;41326;45.302;-122.946;2023-07-13T11:53:46;101282.06;;;20.30;56.81
55460;BME280;41326;45.302;-122.946;2023-07-13T11:56:14;101286.37;;;20.29;56.86
55460;BME280;41326;45.302;-122.946;2023-07-13T11:58:47;101290.23;;;20.33;56.67
55460;BME280;41326;45.302;-122.946;2023-07-13T12:01:21;101290.53;;;20.35;56.66
55460;BME280;41326;45.302;-122.946;2023-07-13T12:03:46;101289.17;;;20.41;56.44
55460;BME280;41326;45.302;-122.946;2023-07-13T12:06:24;101287.04;;;20.36;56.56
55460;BME280;41326;45.302;-122.946;2023-07-13T12:08:46;101289.29;;;20.31;56.62
55460;BME280;41326;45.302;-122.946;2023-07-13T12:11:20;101289.83;;;20.21;56.87
55460;BME280;41326;45.302;-122.946;2023-07-13T12:13:47;101294.56;;;20.16;57.07
55460;BME280;41326;45.302;-122.946;2023-07-13T12:16:23;101289.57;;;20.15;57.09
55460;BME280;41326;45.302;-122.946;2023-07-13T12:18:49;101288.53;;;20.14;57.10
55460;BME280;41326;45.302;-122.946;2023-07-13T12:21:19;101285.27;;;20.15;57.09
55460;BME280;41326;45.302;-122.946;2023-07-13T12:23:50;101287.58;;;20.16;57.01
55460;BME280;41326;45.302;-122.946;2023-07-13T12:26:20;101288.46;;;20.16;57.04
55460;BME280;41326;45.302;-122.946;2023-07-13T12:28:53;101292.80;;;20.15;57.03
55460;BME280;41326;45.302;-122.946;2023-07-13T12:31:29;101298.31;;;20.16;57.00
55460;BME280;41326;45.302;-122.946;2023-07-13T12:36:21;101300.73;;;20.09;57.20
55460;BME280;41326;45.302;-122.946;2023-07-13T12:38:51;101298.83;;;20.20;56.93
55460;BME280;41326;45.302;-122.946;2023-07-13T12:41:21;101297.16;;;20.21;56.80
55460;BME280;41326;45.302;-122.946;2023-07-13T12:43:51;101299.38;;;20.25;56.72
55460;BME280;41326;45.302;-122.946;2023-07-13T12:46:24;101306.43;;;20.20;56.85
55460;BME280;41326;45.302;-122.946;2023-07-13T12:48:54;101307.60;;;20.15;57.03
55460;BME280;41326;45.302;-122.946;2023-07-13T12:51:24;101311.85;;;20.17;56.98
55460;BME280;41326;45.302;-122.946;2023-07-13T12:53:57;101317.42;;;20.10;57.16